createdAt,value
2019-03-30T00:01:56.784Z,101309.52
2019-03-30T00:07:56.715Z,101302.88
2019-03-30T00:13:58.946Z,101296.80
2019-03-30T00:23:13.271Z,101288.72
2019-03-30T00:29:01.414Z,101308.69
2019-03-30T00:34:39.122Z,101306.09
2019-03-30T00:40:27.169Z,101319.53
2019-03-30T00:46:15.305Z,101308.14
2019-03-30T00:52:03.649Z,101315.21
2019-03-30T00:57:51.397Z,101309.55
2019-03-30T01:03:39.939Z,101298.28
2019-03-30T01:09:30.553Z,101296.82
2019-03-30T01:15:19.488Z,101296.65
2019-03-30T01:24:32.121Z,101282.86
2019-03-30T01:30:33.042Z,101291.48
2019-03-30T01:36:32.610Z,101301.04
2019-03-30T01:42:33.973Z,101291.25
2019-03-30T01:58:11.101Z,101289.43
2019-03-30T02:03:59.016Z,101281.11
2019-03-30T02:09:36.946Z,101274.13
2019-03-30T02:15:25.696Z,101264.80
2019-03-30T02:30:57.110Z,101243.95
2019-03-30T02:36:56.942Z,101267.84
2019-03-30T02:42:57.229Z,101276.40
2019-03-30T02:48:58.155Z,101287.66
2019-03-30T02:54:57.958Z,101265.13
2019-03-30T03:00:57.968Z,101274.67
2019-03-30T03:06:57.765Z,101262.74
2019-03-30T03:12:58.657Z,101272.61
2019-03-30T03:18:59.309Z,101281.03
2019-03-30T03:28:27.756Z,101267.34
2019-03-30T03:34:15.732Z,101283.27
2019-03-30T03:39:52.995Z,101279.52
2019-03-30T03:45:42.469Z,101281.73
2019-03-30T03:51:31.223Z,101285.49
2019-03-30T03:57:19.781Z,101290.24
2019-03-30T04:03:08.853Z,101294.66
2019-03-30T04:08:57.810Z,101298.07
2019-03-30T04:14:48.901Z,101295.31
2019-03-30T04:20:37.051Z,101304.75
2019-03-30T04:29:49.527Z,101317.19
2019-03-30T04:35:50.057Z,101312.35
2019-03-30T04:41:49.780Z,101327.69
2019-03-30T04:47:49.854Z,101333.41
2019-03-30T04:53:50.171Z,101331.80
2019-03-30T04:59:50.906Z,101344.91
2019-03-30T05:05:51.416Z,101351.63
2019-03-30T05:11:52.133Z,101342.89
2019-03-30T05:17:52.239Z,101343.49
2019-03-30T05:23:52.143Z,101347.45
2019-03-30T05:33:11.403Z,101340.11
2019-03-30T05:39:00.764Z,101339.23
2019-03-30T05:44:37.553Z,101341.05
2019-03-30T05:50:25.495Z,101347.42
2019-03-30T05:56:13.625Z,101347.78
2019-03-30T06:02:01.770Z,101352.48
2019-03-30T06:07:49.706Z,101351.13
2019-03-30T06:13:38.060Z,101338.26
2019-03-30T06:19:26.506Z,101343.88
2019-03-30T06:25:14.379Z,101324.78
2019-03-30T06:34:30.102Z,101313.73
2019-03-30T06:40:30.834Z,101315.72
2019-03-30T06:46:31.541Z,101305.08
2019-03-30T06:52:31.563Z,101309.36
2019-03-30T06:58:32.175Z,101301.39
2019-03-30T07:04:32.181Z,101288.28
2019-03-30T07:10:32.083Z,101285.59
2019-03-30T07:16:32.805Z,101295.14
2019-03-30T07:22:34.128Z,101284.75
2019-03-30T07:28:34.971Z,101280.80
2019-03-30T07:37:51.753Z,101289.02
2019-03-30T07:43:40.302Z,101282.27
2019-03-30T07:49:16.890Z,101276.09
2019-03-30T07:55:06.372Z,101272.23
2019-03-30T08:00:55.428Z,101278.45
2019-03-30T08:06:43.269Z,101265.70
2019-03-30T08:12:31.513Z,101269.78
2019-03-30T08:18:19.857Z,101264.29
2019-03-30T08:24:08.615Z,101287.92
2019-03-30T08:29:57.168Z,101286.80
2019-03-30T08:39:11.091Z,101305.23
2019-03-30T11:09:33.889Z,101303.75
2019-03-30T11:12:03.446Z,101315.73
2019-03-30T11:14:33.024Z,101318.03
2019-03-30T11:17:02.633Z,101315.00
2019-03-30T11:19:32.270Z,101316.26
2019-03-30T11:22:03.340Z,101301.61
2019-03-30T11:24:33.134Z,101306.82
2019-03-30T11:27:02.770Z,101310.42
2019-03-30T11:29:32.291Z,101317.66
2019-03-30T11:32:01.819Z,101307.85
2019-03-30T11:34:31.457Z,101313.45
2019-03-30T11:37:02.750Z,101319.98
2019-03-30T11:39:34.244Z,101319.23
2019-03-30T11:42:03.203Z,101319.45
2019-03-30T11:44:32.714Z,101323.59
2019-03-30T11:47:02.382Z,101316.48
2019-03-30T11:49:32.069Z,101311.08
2019-03-30T11:52:01.877Z,101304.63
2019-03-30T11:54:31.625Z,101307.61
2019-03-30T11:57:01.216Z,101296.62
2019-03-30T11:59:30.761Z,101305.61
2019-03-30T12:02:01.183Z,101295.97
2019-03-30T12:04:30.660Z,101293.78
2019-03-30T12:07:00.215Z,101296.64
2019-03-30T12:09:29.684Z,101292.83
2019-03-30T12:11:59.171Z,101288.45
2019-03-30T12:14:28.596Z,101289.95
2019-03-30T12:16:58.161Z,101275.69
2019-03-30T12:19:27.770Z,101284.78
2019-03-30T12:21:57.264Z,101273.20
2019-03-30T12:24:26.815Z,101262.27
2019-03-30T12:26:56.350Z,101259.87
2019-03-30T12:29:25.849Z,101260.58
2019-03-30T12:31:55.250Z,101261.13
2019-03-30T12:34:24.750Z,101265.89
2019-03-30T12:36:55.760Z,101258.48
2019-03-30T12:41:56.066Z,101251.06
2019-03-30T12:44:25.816Z,101251.24
2019-03-30T12:46:55.573Z,101248.73
2019-03-30T12:49:25.230Z,101239.62
2019-03-30T12:51:54.911Z,101242.45
2019-03-30T12:54:24.534Z,101240.53
2019-03-30T12:56:54.154Z,101244.28
2019-03-30T12:59:23.683Z,101242.72
2019-03-30T13:01:53.172Z,101232.11
2019-03-30T13:04:22.842Z,101232.49
2019-03-30T13:06:52.671Z,101234.31
2019-03-30T13:09:21.697Z,101228.08
2019-03-30T13:11:51.317Z,101228.30
2019-03-30T13:14:20.951Z,101226.84
2019-03-30T13:16:50.575Z,101223.29
2019-03-30T13:19:20.226Z,101228.63
2019-03-30T13:21:53.051Z,101229.94
2019-03-30T13:24:21.298Z,101232.02
2019-03-30T13:26:50.942Z,101230.64
2019-03-30T13:29:20.657Z,101220.27
2019-03-30T13:31:50.388Z,101217.75
2019-03-30T13:34:20.017Z,101217.37
2019-03-30T13:36:49.754Z,101224.84
2019-03-30T13:39:19.472Z,101221.20
2019-03-30T13:41:49.097Z,101213.55
2019-03-30T13:44:18.733Z,101217.63
2019-03-30T13:46:48.481Z,101222.25
2019-03-30T13:49:18.188Z,101217.48
2019-03-30T13:51:47.821Z,101215.78
2019-03-30T13:54:17.557Z,101216.48
2019-03-30T13:56:47.380Z,101220.88
2019-03-30T13:59:17.120Z,101212.11
2019-03-30T14:01:46.725Z,101216.45
2019-03-30T14:04:17.390Z,101224.86
2019-03-30T14:06:47.132Z,101220.10
2019-03-30T14:09:16.849Z,101227.45
2019-03-30T14:11:46.637Z,101228.61
2019-03-30T14:14:16.417Z,101226.46
2019-03-30T14:16:46.155Z,101230.52
2019-03-30T14:19:15.976Z,101230.72
2019-03-30T14:21:45.627Z,101217.97
2019-03-30T14:24:15.531Z,101220.61
2019-03-30T14:26:45.159Z,101214.44
2019-03-30T14:29:14.793Z,101216.65
2019-03-30T14:31:44.360Z,101223.90
2019-03-30T14:34:14.053Z,101221.53
2019-03-30T14:36:43.778Z,101231.34
2019-03-30T14:39:13.410Z,101225.38
2019-03-30T14:41:43.138Z,101232.45
2019-03-30T14:44:12.876Z,101232.08
2019-03-30T14:46:42.599Z,101234.46
2019-03-30T14:49:12.125Z,101235.30
2019-03-30T14:51:41.970Z,101239.22
2019-03-30T14:54:11.587Z,101231.94
2019-03-30T14:56:45.790Z,101229.11
2019-03-30T14:59:14.425Z,101234.73
2019-03-30T15:01:44.549Z,101245.01
2019-03-30T15:04:14.167Z,101243.42
2019-03-30T15:06:44.020Z,101243.81
2019-03-30T15:09:13.758Z,101237.24
2019-03-30T15:11:43.582Z,101239.73
2019-03-30T15:14:13.316Z,101244.11
2019-03-30T15:16:43.047Z,101248.16
2019-03-30T15:19:12.669Z,101251.84
2019-03-30T15:21:42.237Z,101257.17
2019-03-30T15:24:11.833Z,101260.80
2019-03-30T15:26:41.564Z,101260.83
2019-03-30T15:29:11.602Z,101265.34
2019-03-30T15:31:41.217Z,101257.04
2019-03-30T15:34:10.954Z,101256.05
2019-03-30T15:36:40.532Z,101266.95
2019-03-30T15:39:10.208Z,101269.00
2019-03-30T15:41:39.826Z,101263.42
2019-03-30T15:44:09.556Z,101272.78
2019-03-30T15:46:39.191Z,101275.38
2019-03-30T15:49:09.801Z,101264.76
2019-03-30T15:51:39.570Z,101273.05
2019-03-30T15:54:09.207Z,101273.65
2019-03-30T15:56:38.945Z,101278.02
2019-03-30T15:59:08.788Z,101284.48
2019-03-30T16:01:38.504Z,101280.81
2019-03-30T16:04:08.228Z,101285.00
2019-03-30T16:06:37.986Z,101290.28
2019-03-30T16:09:07.893Z,101290.95
2019-03-30T16:11:37.466Z,101296.91
2019-03-30T16:14:07.247Z,101293.14
2019-03-30T16:16:36.888Z,101299.42
2019-03-30T16:19:06.432Z,101304.87
2019-03-30T16:21:36.144Z,101307.77
2019-03-30T16:24:06.068Z,101303.52
2019-03-30T16:26:42.282Z,101308.11
2019-03-30T16:29:08.082Z,101316.32
2019-03-30T16:31:38.950Z,101316.03
2019-03-30T16:34:08.574Z,101316.58
2019-03-30T16:36:38.305Z,101319.20
2019-03-30T16:39:08.137Z,101319.92
2019-03-30T16:41:37.864Z,101321.80
2019-03-30T16:44:07.407Z,101316.03
2019-03-30T16:46:37.116Z,101328.77
2019-03-30T16:49:06.749Z,101332.67
2019-03-30T16:51:36.343Z,101337.18
2019-03-30T16:54:06.334Z,101338.91
2019-03-30T16:56:35.926Z,101334.77
2019-03-30T16:59:05.972Z,101342.53
2019-03-30T17:01:35.796Z,101346.08
2019-03-30T17:04:05.431Z,101345.14
2019-03-30T17:06:35.177Z,101343.68
2019-03-30T17:09:06.488Z,101350.28
2019-03-30T17:11:36.250Z,101349.88
2019-03-30T17:14:05.979Z,101350.88
2019-03-30T17:16:35.613Z,101355.55
2019-03-30T17:19:05.142Z,101350.36
2019-03-30T17:21:34.980Z,101358.36
2019-03-30T17:24:04.700Z,101354.88
2019-03-30T17:26:34.283Z,101365.48
2019-03-30T17:29:05.590Z,101362.45
2019-03-30T17:31:35.430Z,101370.62
2019-03-30T17:34:05.046Z,101363.59
2019-03-30T17:36:34.778Z,101369.64
2019-03-30T17:39:06.795Z,101369.86
2019-03-30T17:41:36.487Z,101377.45
2019-03-30T17:44:06.156Z,101381.53
2019-03-30T17:46:35.862Z,101378.87
2019-03-30T17:49:05.607Z,101387.56
2019-03-30T17:51:35.419Z,101392.91
2019-03-30T17:54:06.890Z,101391.62
2019-03-30T17:56:36.619Z,101396.89
2019-03-30T17:59:08.545Z,101399.09
2019-03-30T18:01:38.232Z,101392.61
2019-03-30T18:04:08.058Z,101397.66
2019-03-30T18:06:37.802Z,101395.62
2019-03-30T18:09:07.520Z,101395.62
2019-03-30T18:11:37.144Z,101402.00
2019-03-30T18:14:06.776Z,101399.35
2019-03-30T18:16:36.605Z,101405.96
2019-03-30T18:19:06.338Z,101402.77
2019-03-30T18:21:37.908Z,101405.40
2019-03-30T18:24:09.097Z,101401.27
2019-03-30T18:26:38.854Z,101404.11
2019-03-30T18:29:08.440Z,101409.80
2019-03-30T18:31:39.973Z,101406.99
2019-03-30T18:34:09.689Z,101402.87
2019-03-30T18:36:40.070Z,101409.92
2019-03-30T18:39:10.258Z,101407.41
2019-03-30T18:41:39.995Z,101410.44
2019-03-30T18:44:09.671Z,101416.83
2019-03-30T18:46:39.301Z,101415.07
2019-03-30T18:49:09.029Z,101417.19
2019-03-30T18:51:39.586Z,101419.63
2019-03-30T18:54:10.229Z,101427.22
2019-03-30T18:56:39.962Z,101424.00
2019-03-30T18:59:09.791Z,101430.20
2019-03-30T19:01:39.414Z,101432.98
2019-03-30T19:04:09.156Z,101421.53
2019-03-30T19:06:39.197Z,101422.63
2019-03-30T19:09:08.913Z,101417.55
2019-03-30T19:11:38.604Z,101423.02
2019-03-30T19:14:08.477Z,101426.95
2019-03-30T19:16:38.113Z,101429.05
2019-03-30T19:19:07.626Z,101434.44
2019-03-30T19:21:37.258Z,101431.10
2019-03-30T19:24:06.783Z,101427.38
2019-03-30T19:26:36.441Z,101438.06
2019-03-30T19:29:06.143Z,101433.91
2019-03-30T19:31:35.779Z,101443.75
2019-03-30T19:34:05.328Z,101433.04
2019-03-30T19:36:34.922Z,101441.18
2019-03-30T19:39:07.653Z,101450.63
2019-03-30T19:41:37.352Z,101449.44
2019-03-30T19:44:06.994Z,101444.58
2019-03-30T19:46:36.602Z,101443.80
2019-03-30T19:49:06.342Z,101452.09
2019-03-30T19:51:36.773Z,101445.02
2019-03-30T19:54:06.030Z,101449.36
2019-03-30T19:56:35.605Z,101449.69
2019-03-30T19:59:10.925Z,101449.72
2019-03-30T20:01:37.881Z,101452.05
2019-03-30T20:04:08.004Z,101455.11
2019-03-30T20:06:37.723Z,101457.18
2019-03-30T20:09:09.192Z,101454.50
2019-03-30T20:11:40.418Z,101453.18
2019-03-30T20:14:10.080Z,101459.41
2019-03-30T20:16:42.171Z,101450.81
2019-03-30T20:19:12.888Z,101450.81
2019-03-30T20:21:42.369Z,101460.06
2019-03-30T20:24:11.919Z,101457.20
2019-03-30T20:26:41.946Z,101462.93
2019-03-30T20:29:24.783Z,101464.63
2019-03-30T20:31:43.923Z,101459.92
2019-03-30T20:34:13.550Z,101462.25
2019-03-30T20:36:43.384Z,101464.97
2019-03-30T20:39:13.115Z,101459.75
2019-03-30T20:41:42.945Z,101460.27
2019-03-30T20:44:12.784Z,101462.14
2019-03-30T20:46:43.792Z,101456.62
2019-03-30T20:49:13.583Z,101462.33
2019-03-30T20:51:44.441Z,101458.64
2019-03-30T20:54:14.058Z,101463.86
2019-03-30T20:56:43.686Z,101461.84
2019-03-30T20:59:14.431Z,101464.71
2019-03-30T21:01:44.170Z,101467.89
2019-03-30T21:04:13.682Z,101464.52
2019-03-30T21:06:43.318Z,101462.68
2019-03-30T21:09:12.941Z,101457.94
2019-03-30T21:11:42.673Z,101461.63
2019-03-30T21:14:12.299Z,101460.11
2019-03-30T21:16:41.937Z,101466.52
2019-03-30T21:19:11.553Z,101460.30
2019-03-30T21:21:41.287Z,101459.96
2019-03-30T21:24:10.914Z,101457.93
2019-03-30T21:26:40.353Z,101458.27
2019-03-30T21:29:10.087Z,101472.42
2019-03-30T21:31:39.797Z,101478.48
2019-03-30T21:34:09.427Z,101462.34
2019-03-30T21:36:40.282Z,101466.05
2019-03-30T21:39:10.014Z,101468.73
2019-03-30T21:41:39.841Z,101466.38
2019-03-30T21:44:21.428Z,101467.73
2019-03-30T21:46:40.735Z,101460.16
2019-03-30T21:49:10.362Z,101469.23
2019-03-30T21:51:39.989Z,101467.02
2019-03-30T21:54:09.620Z,101465.34
2019-03-30T21:56:39.249Z,101468.88
2019-03-30T21:59:09.994Z,101471.19
2019-03-30T22:01:39.734Z,101467.00
2019-03-30T22:04:09.373Z,101465.30
2019-03-30T22:06:38.886Z,101472.20
2019-03-30T22:09:08.472Z,101469.67
2019-03-30T22:11:38.137Z,101468.62
2019-03-30T22:14:07.792Z,101465.59
2019-03-30T22:16:37.285Z,101463.52
2019-03-30T22:19:06.923Z,101466.70
2019-03-30T22:21:36.507Z,101468.10
2019-03-30T22:24:06.067Z,101465.93
2019-03-30T22:26:35.704Z,101463.23
2019-03-30T22:29:05.328Z,101460.86
2019-03-30T22:31:35.056Z,101462.17
2019-03-30T22:34:04.889Z,101464.77
2019-03-30T22:36:34.483Z,101463.39
2019-03-30T22:39:06.019Z,101462.42
2019-03-30T22:41:35.720Z,101457.08
2019-03-30T22:44:05.351Z,101460.50
2019-03-30T22:46:35.202Z,101460.49
2019-03-30T22:49:04.913Z,101464.84
2019-03-30T22:51:34.644Z,101455.73
2019-03-30T22:54:04.489Z,101458.20
2019-03-30T22:56:35.220Z,101457.37
2019-03-30T22:59:04.956Z,101454.84
2019-03-30T23:01:34.784Z,101448.72
2019-03-30T23:04:04.416Z,101449.87
2019-03-30T23:06:34.059Z,101448.48
2019-03-30T23:09:05.813Z,101449.84
2019-03-30T23:11:35.951Z,101445.94
2019-03-30T23:14:05.793Z,101447.75
2019-03-30T23:16:35.567Z,101444.30
2019-03-30T23:19:05.242Z,101452.84
2019-03-30T23:21:35.795Z,101452.68
2019-03-30T23:24:05.527Z,101457.55
2019-03-30T23:26:35.148Z,101462.30
2019-03-30T23:29:04.885Z,101453.19
2019-03-30T23:31:34.615Z,101448.80
2019-03-30T23:34:04.254Z,101449.03
2019-03-30T23:36:33.983Z,101447.03
2019-03-30T23:39:05.538Z,101453.84
2019-03-30T23:41:35.174Z,101453.63
2019-03-30T23:44:04.894Z,101456.38
2019-03-30T23:46:34.493Z,101454.58
2019-03-30T23:49:04.049Z,101460.31
2019-03-30T23:51:33.682Z,101460.41
2019-03-30T23:54:03.242Z,101457.38
2019-03-30T23:56:32.835Z,101462.96
2019-03-30T23:59:02.471Z,101461.73
